Time;durP1;ratioP1;P1;durP2;ratioP2;P2;SDS_P1;SDS_P2;PMS_P1;PMS_P2;Temp;Humidity;BMP_temperature;BMP_pressure;BME280_temperature;BME280_humidity;BME280_pressure;Samples;Min_cycle;Max_cycle;Signal;HPM_P1;HPM_P2
2022/05/20 00:01:59;;;;;;;12.77;5.70;;;20.80;99.90;;;;;;5027523;28;20181;-70
2022/05/20 00:04:24;;;;;;;9.27;6.40;;;20.90;99.90;;;;;;5030066;28;20183;-70
2022/05/20 00:06:50;;;;;;;8.60;6.33;;;20.70;99.90;;;;;;5019390;28;20566;-70
2022/05/20 00:09:15;;;;;;;9.67;5.90;;;20.70;99.90;;;;;;5026724;28;20209;-70
2022/05/20 00:11:41;;;;;;;11.30;6.23;;;20.70;99.90;;;;;;5028242;28;20460;-70
2022/05/20 00:14:06;;;;;;;9.83;6.37;;;20.60;99.90;;;;;;5028758;28;20200;-70
2022/05/20 00:16:36;;;;;;;11.17;6.20;;;20.60;99.90;;;;;;5025181;28;20471;-71
2022/05/20 00:19:06;;;;;;;15.17;6.20;;;20.60;99.90;;;;;;5019830;28;20675;-70
2022/05/20 00:21:33;;;;;;;10.67;6.50;;;20.60;99.90;;;;;;5015883;28;20482;-70
2022/05/20 00:23:59;;;;;;;17.20;6.50;;;20.50;99.90;;;;;;5018234;28;20837;-69
2022/05/20 00:26:25;;;;;;;13.30;6.60;;;20.50;99.90;;;;;;5011336;28;20822;-69
2022/05/20 00:28:53;;;;;;;9.73;6.67;;;20.50;99.90;;;;;;5029334;28;20460;-70
2022/05/20 00:31:20;;;;;;;10.90;6.37;;;20.60;99.90;;;;;;5028609;28;20925;-72
2022/05/20 00:33:45;;;;;;;9.07;6.13;;;20.60;99.90;;;;;;5023883;28;20436;-70
2022/05/20 00:36:11;;;;;;;11.03;6.70;;;20.50;99.90;;;;;;5019767;28;20447;-70
2022/05/20 00:38:36;;;;;;;12.50;6.50;;;20.40;99.90;;;;;;5022944;28;20252;-70
2022/05/20 00:41:02;;;;;;;11.30;5.93;;;20.40;99.90;;;;;;5026733;28;20230;-69
2022/05/20 00:43:46;;;;;;;14.30;6.13;;;20.40;99.90;;;;;;5027177;28;20562;-70
2022/05/20 00:46:16;;;;;;;18.10;6.87;;;20.40;99.90;;;;;;5018979;28;20440;-70
2022/05/20 00:48:43;;;;;;;9.27;6.00;;;20.30;99.90;;;;;;5028002;28;20462;-70
2022/05/20 00:51:16;;;;;;;10.63;6.50;;;20.30;99.90;;;;;;5022388;28;20436;-70
2022/05/20 00:54:00;;;;;;;8.63;6.10;;;20.30;99.90;;;;;;5019965;28;20474;-69
2022/05/20 00:56:33;;;;;;;11.57;6.67;;;20.30;99.90;;;;;;5017174;28;20474;-69
2022/05/20 00:58:59;;;;;;;9.77;6.80;;;20.30;99.90;;;;;;5031819;28;20435;-69
2022/05/20 01:01:26;;;;;;;10.80;6.87;;;20.30;99.90;;;;;;5031507;28;20436;-69
2022/05/20 01:03:53;;;;;;;9.53;6.40;;;20.30;99.90;;;;;;5026151;28;20428;-70
2022/05/20 01:06:19;;;;;;;9.10;6.50;;;20.30;99.90;;;;;;5012532;28;20435;-70
2022/05/20 01:08:44;;;;;;;11.90;7.13;;;20.20;99.90;;;;;;5023345;28;20470;-70
2022/05/20 01:11:10;;;;;;;11.57;6.97;;;20.20;99.90;;;;;;5018712;28;20482;-71
2022/05/20 01:13:36;;;;;;;7.83;6.27;;;20.10;99.90;;;;;;5017458;28;20661;-68
2022/05/20 01:16:07;;;;;;;10.90;6.60;;;20.10;99.90;;;;;;5028726;28;20176;-69
2022/05/20 01:18:35;;;;;;;8.30;6.60;;;20.10;99.90;;;;;;5017611;28;20456;-70
2022/05/20 01:21:02;;;;;;;9.23;6.50;;;20.10;99.90;;;;;;5021450;28;20436;-70
2022/05/20 01:23:28;;;;;;;11.37;6.10;;;20.10;99.90;;;;;;5026643;28;20743;-70
2022/05/20 01:25:56;;;;;;;8.87;5.90;;;20.10;99.90;;;;;;5022243;28;20440;-71
2022/05/20 01:28:24;;;;;;;12.00;6.50;;;20.20;99.90;;;;;;5027065;28;20452;-70
2022/05/20 01:31:02;;;;;;;12.23;6.73;;;20.20;99.90;;;;;;5022693;28;20504;-70
2022/05/20 01:33:34;;;;;;;10.03;6.07;;;20.20;99.90;;;;;;5026762;28;20440;-70
2022/05/20 01:36:03;;;;;;;11.77;6.50;;;20.10;99.90;;;;;;5020542;28;20423;-69
2022/05/20 01:38:29;;;;;;;8.47;6.30;;;20.10;99.90;;;;;;5021565;28;20807;-70
2022/05/20 01:41:05;;;;;;;9.53;6.03;;;20.10;99.90;;;;;;5027411;28;20416;-70
2022/05/20 01:43:38;;;;;;;10.20;6.70;;;20.10;99.90;;;;;;5022633;28;20518;-70
2022/05/20 01:46:30;;;;;;;9.50;6.60;;;20.00;99.90;;;;;;5007461;28;20432;-70
2022/05/20 01:49:26;;;;;;;6.90;5.90;;;19.90;99.90;;;;;;5019070;28;20966;-70
2022/05/20 01:52:23;;;;;;;10.43;6.20;;;19.80;99.90;;;;;;5020861;28;20440;-70
2022/05/20 01:55:03;;;;;;;13.90;6.17;;;19.80;99.90;;;;;;5025266;28;20514;-69
2022/05/20 01:57:28;;;;;;;8.80;6.50;;;19.70;99.90;;;;;;5018173;28;20464;-71
2022/05/20 02:00:03;;;;;;;8.37;6.30;;;19.70;99.90;;;;;;5023719;28;20450;-71
2022/05/20 02:02:34;;;;;;;12.10;6.40;;;19.80;99.90;;;;;;5027234;28;20255;-71
2022/05/20 02:05:14;;;;;;;14.40;7.50;;;19.90;99.90;;;;;;5026414;28;21060;-70
2022/05/20 02:07:44;;;;;;;7.87;6.80;;;19.90;99.90;;;;;;5020691;28;20471;-70
2022/05/20 02:10:45;;;;;;;9.50;6.60;;;20.00;99.90;;;;;;5026848;28;20439;-71
2022/05/20 02:13:14;;;;;;;10.73;7.23;;;20.00;99.90;;;;;;5005386;28;20936;-70
2022/05/20 02:15:57;;;;;;;13.53;7.23;;;20.00;99.90;;;;;;5016483;28;20539;-70
2022/05/20 02:18:34;;;;;;;10.90;7.63;;;20.00;99.90;;;;;;5025946;28;20496;-70
2022/05/20 02:21:15;;;;;;;11.83;7.53;;;20.00;99.90;;;;;;5017417;28;20953;-69
2022/05/20 02:23:50;;;;;;;9.90;7.13;;;20.00;99.90;;;;;;5024242;28;20496;-70
2022/05/20 02:26:21;;;;;;;11.73;7.00;;;20.00;99.90;;;;;;5019700;28;20594;-70
2022/05/20 02:28:55;;;;;;;11.13;7.43;;;20.00;99.90;;;;;;5024696;28;20455;-70
2022/05/20 02:31:28;;;;;;;16.23;8.17;;;20.00;99.90;;;;;;5025829;28;20447;-70
2022/05/20 02:33:54;;;;;;;11.90;7.17;;;20.00;99.90;;;;;;5026911;28;20408;-70
2022/05/20 02:36:25;;;;;;;9.20;7.23;;;20.10;99.90;;;;;;5017799;28;20439;-70
2022/05/20 02:38:50;;;;;;;12.90;7.57;;;20.20;99.90;;;;;;5024608;28;20197;-71
2022/05/20 02:41:16;;;;;;;10.77;7.27;;;20.30;99.90;;;;;;5016644;28;20436;-70
2022/05/20 02:43:42;;;;;;;13.23;7.10;;;20.40;99.90;;;;;;5026884;28;20165;-70
2022/05/20 02:46:09;;;;;;;14.63;6.80;;;20.50;99.90;;;;;;5025348;28;20439;-70
2022/05/20 02:48:36;;;;;;;11.03;7.57;;;20.50;99.90;;;;;;5027791;28;20219;-70
2022/05/20 02:51:02;;;;;;;14.93;7.67;;;20.60;99.90;;;;;;5018867;28;20439;-69
2022/05/20 02:53:27;;;;;;;13.80;6.93;;;20.60;99.90;;;;;;5024246;28;20415;-70
2022/05/20 02:55:53;;;;;;;13.77;7.23;;;20.60;99.90;;;;;;5024906;28;20432;-70
2022/05/20 03:04:10;;;;;;;16.33;7.60;;;20.50;99.90;;;;;;5026837;28;20415;-70
2022/05/20 03:06:48;;;;;;;10.70;8.03;;;20.40;99.90;;;;;;5016880;28;20539;-68
2022/05/20 03:09:15;;;;;;;13.13;6.63;;;20.40;99.90;;;;;;5023607;28;20581;-68
2022/05/20 03:11:41;;;;;;;8.93;6.50;;;20.30;99.90;;;;;;5022984;28;21197;-70
2022/05/20 03:14:09;;;;;;;10.90;7.20;;;20.20;99.90;;;;;;5024359;28;20483;-68
2022/05/20 03:16:36;;;;;;;11.47;7.30;;;20.10;99.90;;;;;;5022787;28;20166;-69
2022/05/20 03:19:02;;;;;;;17.40;7.73;;;20.00;99.90;;;;;;5028756;28;20431;-70
2022/05/20 03:21:28;;;;;;;12.83;7.37;;;19.80;99.90;;;;;;5023868;28;20431;-68
2022/05/20 03:23:54;;;;;;;11.97;7.80;;;19.80;99.90;;;;;;5027752;28;20439;-69
2022/05/20 03:26:21;;;;;;;11.20;7.70;;;20.10;99.90;;;;;;5022839;28;20697;-69
2022/05/20 03:28:47;;;;;;;8.93;6.97;;;19.80;99.90;;;;;;5028180;28;20563;-69
2022/05/20 03:31:13;;;;;;;12.63;7.40;;;19.80;99.90;;;;;;5028614;28;20433;-69
2022/05/20 03:33:40;;;;;;;9.70;7.00;;;19.80;99.90;;;;;;5030144;28;20170;-69
2022/05/20 03:36:07;;;;;;;12.87;7.47;;;19.90;99.90;;;;;;5025617;28;20181;-68
2022/05/20 03:38:33;;;;;;;8.13;6.87;;;19.90;99.90;;;;;;5019941;28;20605;-69
2022/05/20 03:40:59;;;;;;;10.90;6.90;;;19.90;99.90;;;;;;5026440;28;20436;-69
2022/05/20 03:43:24;;;;;;;15.83;6.60;;;19.90;99.90;;;;;;5028055;28;20473;-69
2022/05/20 03:45:54;;;;;;;12.07;7.23;;;19.90;99.90;;;;;;5024137;28;20320;-70
2022/05/20 03:48:20;;;;;;;10.47;7.20;;;19.80;99.90;;;;;;5031320;28;20231;-69
2022/05/20 03:50:46;;;;;;;14.30;7.37;;;19.90;99.90;;;;;;5015747;28;20441;-69
2022/05/20 03:53:11;;;;;;;10.27;6.80;;;19.90;99.90;;;;;;5028356;28;20412;-69
2022/05/20 03:55:37;;;;;;;10.80;6.60;;;19.90;99.90;;;;;;5015504;28;20249;-69
2022/05/20 03:58:02;;;;;;;11.70;5.90;;;20.00;99.90;;;;;;5029005;28;20281;-69
2022/05/20 04:00:28;;;;;;;13.57;6.50;;;20.00;99.90;;;;;;5023204;28;20204;-69
2022/05/20 04:02:54;;;;;;;8.13;6.00;;;20.10;99.90;;;;;;5029248;28;20319;-67
2022/05/20 04:05:20;;;;;;;8.93;6.53;;;20.20;99.90;;;;;;5024583;28;20219;-69
2022/05/20 04:07:45;;;;;;;11.70;6.20;;;20.30;99.90;;;;;;5023308;28;20200;-69
2022/05/20 04:10:11;;;;;;;8.50;6.27;;;20.30;99.90;;;;;;5026884;28;20431;-69
2022/05/20 04:12:43;;;;;;;14.83;5.70;;;20.40;99.90;;;;;;5028347;28;20628;-69
2022/05/20 04:15:13;;;;;;;12.13;6.30;;;20.50;99.90;;;;;;5028175;28;20675;-69
2022/05/20 04:17:38;;;;;;;11.47;6.83;;;20.60;99.90;;;;;;5022830;28;21170;-69
2022/05/20 04:20:06;;;;;;;7.27;5.90;;;20.70;99.90;;;;;;5024767;28;20526;-69
2022/05/20 04:22:34;;;;;;;8.03;6.33;;;20.80;99.90;;;;;;5024224;28;20266;-69
2022/05/20 04:25:00;;;;;;;7.60;6.10;;;20.80;99.90;;;;;;5018483;28;20444;-69
2022/05/20 04:27:29;;;;;;;11.40;5.80;;;20.90;99.90;;;;;;5024633;28;20973;-69
2022/05/20 04:29:55;;;;;;;9.73;6.50;;;21.00;99.90;;;;;;5018227;28;20206;-69
2022/05/20 04:32:21;;;;;;;8.00;6.07;;;21.10;99.90;;;;;;5028655;28;20942;-69
2022/05/20 04:34:47;;;;;;;8.30;5.90;;;21.10;99.90;;;;;;5022212;28;20715;-69
2022/05/20 04:37:13;;;;;;;12.20;5.77;;;21.30;99.90;;;;;;5019126;28;20475;-69
2022/05/20 04:39:40;;;;;;;8.67;5.63;;;21.40;99.80;;;;;;5026060;28;20618;-69
2022/05/20 04:47:34;;;;;;;9.67;5.70;;;21.70;99.90;;;;;;5018084;28;20607;-69
2022/05/20 04:50:00;;;;;;;8.47;5.97;;;21.90;97.60;;;;;;5020728;28;20556;-69
2022/05/20 04:52:26;;;;;;;8.50;6.37;;;21.80;95.90;;;;;;5023302;28;20189;-69
2022/05/20 04:54:52;;;;;;;12.50;6.23;;;22.00;96.70;;;;;;5018454;28;20533;-68
2022/05/20 04:57:38;;;;;;;8.17;6.77;;;22.00;95.80;;;;;;5022373;28;20288;-70
2022/05/20 05:00:18;;;;;;;10.70;7.10;;;22.10;93.40;;;;;;5023365;28;20443;-69
2022/05/20 05:02:44;;;;;;;9.83;6.73;;;22.10;93.00;;;;;;5022682;28;20541;-69
2022/05/20 05:05:14;;;;;;;14.70;7.80;;;22.10;95.30;;;;;;5028611;28;20490;-69
2022/05/20 05:07:42;;;;;;;13.87;7.80;;;22.10;95.10;;;;;;5023242;28;20452;-69
2022/05/20 05:10:10;;;;;;;12.90;7.73;;;22.10;94.60;;;;;;5014668;28;20491;-69
2022/05/20 05:12:35;;;;;;;15.70;7.53;;;22.10;94.90;;;;;;5014921;28;20801;-68
2022/05/20 05:15:01;;;;;;;11.00;7.97;;;22.10;96.30;;;;;;5025082;28;20427;-69
2022/05/20 05:20:16;;;;;;;15.10;8.00;;;21.90;98.70;;;;;;5012014;28;20204;-70
2022/05/20 05:22:42;;;;;;;14.43;8.10;;;21.80;99.90;;;;;;5019123;28;20958;-69
2022/05/20 05:25:10;;;;;;;14.90;8.10;;;21.80;98.30;;;;;;5025217;28;20416;-69
2022/05/20 05:27:36;;;;;;;12.80;8.43;;;21.80;99.90;;;;;;5022731;28;20442;-70
2022/05/20 05:30:02;;;;;;;14.17;9.00;;;21.70;99.90;;;;;;5026743;28;20564;-69
2022/05/20 05:32:28;;;;;;;18.07;9.10;;;21.60;99.90;;;;;;5018143;28;20271;-70
2022/05/20 05:34:54;;;;;;;12.27;8.93;;;21.60;99.90;;;;;;5025179;28;20592;-69
2022/05/20 05:37:19;;;;;;;20.10;9.53;;;21.60;99.90;;;;;;5021621;28;20212;-68
2022/05/20 05:39:45;;;;;;;15.43;9.33;;;21.60;99.90;;;;;;5024893;28;20220;-69
2022/05/20 05:42:10;;;;;;;14.90;9.03;;;21.60;99.90;;;;;;5024280;28;20315;-70
2022/05/20 05:44:36;;;;;;;13.10;9.37;;;21.60;99.90;;;;;;5026072;28;20238;-69
2022/05/20 05:47:01;;;;;;;16.37;9.50;;;21.60;99.90;;;;;;5015439;28;20231;-69
2022/05/20 05:49:27;;;;;;;16.33;10.67;;;21.60;99.90;;;;;;5011892;28;20205;-70
2022/05/20 05:51:54;;;;;;;23.27;11.00;;;21.70;99.90;;;;;;5017531;28;20604;-69
2022/05/20 05:54:19;;;;;;;14.23;9.37;;;21.70;99.90;;;;;;5016004;28;20176;-69
2022/05/20 05:56:45;;;;;;;15.27;10.40;;;21.80;99.90;;;;;;5016440;28;20428;-68
2022/05/20 05:59:10;;;;;;;17.83;12.10;;;21.80;99.90;;;;;;5017372;28;20187;-68
2022/05/20 06:01:36;;;;;;;19.07;10.93;;;21.80;99.90;;;;;;5027039;28;20176;-68
2022/05/20 06:04:02;;;;;;;19.80;12.63;;;21.90;99.90;;;;;;5017905;28;20181;-69
2022/05/20 06:06:28;;;;;;;19.70;12.43;;;22.00;99.90;;;;;;5025159;28;20608;-69
2022/05/20 06:08:53;;;;;;;18.80;12.23;;;22.00;99.90;;;;;;5020558;28;20463;-69
2022/05/20 06:11:19;;;;;;;15.13;10.63;;;22.20;99.90;;;;;;5026691;28;20178;-68
2022/05/20 06:13:45;;;;;;;15.50;10.85;;;22.10;98.30;;;;;;5024428;28;20611;-69
2022/05/20 06:16:21;;;;;;;14.87;10.77;;;22.20;99.90;;;;;;5027609;28;20170;-70
2022/05/20 06:18:46;;;;;;;16.57;11.00;;;22.30;95.80;;;;;;5019002;28;20520;-70
2022/05/20 06:21:12;;;;;;;14.73;10.63;;;22.40;93.50;;;;;;5028830;28;20452;-69
2022/05/20 06:23:37;;;;;;;15.07;10.03;;;22.50;93.30;;;;;;5024409;28;20539;-70
2022/05/20 06:26:03;;;;;;;20.10;11.20;;;22.60;91.90;;;;;;5023356;28;20185;-69
2022/05/20 06:28:30;;;;;;;14.40;10.47;;;22.70;88.60;;;;;;5026692;28;20332;-68
2022/05/20 06:30:57;;;;;;;15.30;9.70;;;22.70;92.30;;;;;;5025400;28;20170;-70
2022/05/20 06:33:24;;;;;;;18.23;10.20;;;22.80;90.50;;;;;;5024955;28;20408;-69
2022/05/20 06:41:18;;;;;;;11.47;7.77;;;22.90;86.40;;;;;;5021278;28;20414;-69
2022/05/20 06:43:43;;;;;;;10.13;8.30;;;23.10;85.90;;;;;;5021105;28;20435;-70
2022/05/20 06:46:10;;;;;;;8.60;7.57;;;23.20;80.90;;;;;;5018320;28;20255;-70
2022/05/20 06:48:48;;;;;;;13.00;8.83;;;23.30;79.70;;;;;;5013779;28;20206;-70
2022/05/20 06:51:17;;;;;;;12.97;7.87;;;23.30;67.00;;;;;;5027197;28;20455;-69
2022/05/20 06:53:43;;;;;;;8.07;6.57;;;23.50;67.50;;;;;;5012192;28;20436;-71
2022/05/20 06:56:10;;;;;;;9.63;7.60;;;23.60;59.80;;;;;;5030738;28;20634;-71
2022/05/20 06:58:35;;;;;;;9.83;7.00;;;23.70;52.70;;;;;;5028185;28;20215;-72
2022/05/20 07:01:01;;;;;;;14.37;7.70;;;23.80;50.20;;;;;;5030480;28;20526;-71
2022/05/20 07:03:27;;;;;;;20.23;7.20;;;23.90;49.70;;;;;;5046338;28;20173;-71
2022/05/20 07:05:53;;;;;;;13.60;7.20;;;24.10;53.20;;;;;;5029160;28;20187;-72
2022/05/20 07:08:18;;;;;;;11.07;6.80;;;24.40;50.00;;;;;;5023163;28;20220;-71
2022/05/20 07:10:44;;;;;;;10.50;7.17;;;24.60;50.20;;;;;;5025982;28;20408;-72
2022/05/20 07:13:10;;;;;;;9.70;6.37;;;24.70;49.90;;;;;;5020395;28;20270;-71
2022/05/20 07:15:36;;;;;;;16.30;7.47;;;24.70;47.80;;;;;;5026463;28;20193;-71
2022/05/20 07:18:01;;;;;;;9.40;7.43;;;24.90;43.80;;;;;;5025345;28;20258;-70
2022/05/20 07:20:27;;;;;;;12.77;6.73;;;25.20;36.30;;;;;;5034606;28;20305;-72
2022/05/20 07:22:52;;;;;;;9.70;6.93;;;25.20;40.00;;;;;;5026858;28;20557;-71
2022/05/20 07:25:19;;;;;;;9.47;6.80;;;25.30;36.10;;;;;;5030916;28;20252;-71
2022/05/20 07:27:45;;;;;;;10.70;6.77;;;25.50;35.10;;;;;;5025135;28;20579;-71
2022/05/20 07:30:15;;;;;;;8.63;7.50;;;25.60;31.10;;;;;;5030213;28;21149;-70
2022/05/20 07:32:41;;;;;;;9.63;7.20;;;25.70;27.30;;;;;;5037482;28;20474;-72
2022/05/20 07:35:09;;;;;;;9.93;7.47;;;26.00;27.70;;;;;;5031342;28;20443;-71
2022/05/20 07:37:35;;;;;;;13.10;7.43;;;26.00;25.80;;;;;;5023109;28;20194;-71
2022/05/20 07:40:01;;;;;;;15.70;7.33;;;26.10;26.30;;;;;;5020782;28;20793;-71
2022/05/20 07:42:26;;;;;;;11.87;7.30;;;26.20;22.20;;;;;;5027832;28;20436;-70
2022/05/20 07:44:52;;;;;;;10.70;7.80;;;26.20;20.00;;;;;;5029428;28;20360;-71
2022/05/20 07:47:18;;;;;;;10.07;7.60;;;26.40;19.50;;;;;;5024463;28;20670;-71
2022/05/20 07:49:44;;;;;;;9.63;7.40;;;26.40;18.20;;;;;;5025277;28;20656;-72
2022/05/20 07:52:11;;;;;;;9.63;7.40;;;26.50;17.40;;;;;;5023564;28;20456;-71
2022/05/20 07:54:42;;;;;;;14.63;6.93;;;26.80;19.00;;;;;;5026265;28;20261;-71
2022/05/20 07:57:13;;;;;;;10.60;7.20;;;27.10;18.70;;;;;;5017382;28;20243;-71
2022/05/20 07:59:53;;;;;;;12.87;7.40;;;27.40;13.30;;;;;;5025988;28;20847;-72
2022/05/20 08:02:22;;;;;;;16.77;7.20;;;27.60;12.50;;;;;;5028142;28;20181;-71
2022/05/20 08:04:55;;;;;;;9.23;7.20;;;27.60;10.60;;;;;;5037993;28;20644;-71
2022/05/20 08:07:31;;;;;;;10.90;7.37;;;27.70;8.10;;;;;;5024261;28;20201;-71
2022/05/20 08:10:00;;;;;;;12.80;7.40;;;27.80;7.60;;;;;;5028750;28;20243;-72
2022/05/20 08:12:26;;;;;;;10.13;7.20;;;27.70;8.30;;;;;;5028366;28;20177;-73
2022/05/20 08:14:51;;;;;;;12.07;7.90;;;28.00;7.00;;;;;;5025943;28;20175;-71
2022/05/20 08:17:22;;;;;;;13.10;7.37;;;28.30;4.30;;;;;;5020129;28;20201;-71
2022/05/20 08:19:48;;;;;;;9.97;7.50;;;28.50;2.20;;;;;;5031266;28;20226;-71
2022/05/20 08:22:16;;;;;;;11.60;7.63;;;28.70;1.00;;;;;;5028868;28;20169;-69
2022/05/20 08:24:42;;;;;;;13.00;7.60;;;28.70;1.00;;;;;;5018686;28;20235;-71
2022/05/20 08:27:07;;;;;;;18.97;8.20;;;28.90;1.00;;;;;;5028664;28;20201;-72
2022/05/20 08:29:34;;;;;;;10.60;7.77;;;28.90;1.00;;;;;;5031643;28;20563;-70
2022/05/20 08:31:59;;;;;;;11.10;8.00;;;28.90;1.00;;;;;;5027931;28;20276;-70
2022/05/20 08:34:25;;;;;;;12.63;7.47;;;28.60;2.50;;;;;;5025026;28;20269;-71
2022/05/20 08:36:50;;;;;;;14.10;7.10;;;28.60;1.00;;;;;;5029963;28;20190;-71
2022/05/20 08:39:16;;;;;;;9.90;7.17;;;28.60;1.70;;;;;;5018754;28;20599;-71
2022/05/20 08:41:47;;;;;;;10.43;8.07;;;29.10;1.00;;;;;;5035294;28;20581;-71
2022/05/20 08:44:17;;;;;;;11.03;7.97;;;29.30;1.00;;;;;;5020131;28;20177;-71
2022/05/20 08:46:44;;;;;;;10.63;8.07;;;29.70;1.00;;;;;;5015095;28;20293;-71
2022/05/20 08:49:13;;;;;;;13.43;8.20;;;30.30;1.00;;;;;;5020881;28;20925;-71
2022/05/20 08:51:41;;;;;;;13.90;6.90;;;31.10;1.00;;;;;;5021458;28;20181;-71
2022/05/20 08:54:08;;;;;;;8.15;6.80;;;32.00;1.00;;;;;;5016197;28;20256;-71
2022/05/20 08:56:37;;;;;;;10.38;7.55;;;33.00;1.00;;;;;;5024839;28;20174;-73
2022/05/20 08:59:11;;;;;;;7.18;6.28;;;34.00;1.00;;;;;;5020044;28;20189;-72
2022/05/20 09:01:42;;;;;;;13.32;7.00;;;34.50;1.00;;;;;;5032080;28;20192;-71
2022/05/20 09:04:14;;;;;;;10.90;6.88;;;34.80;1.00;;;;;;5021116;28;20200;-70
2022/05/20 09:07:01;;;;;;;9.57;6.22;;;35.10;1.00;;;;;;5028600;28;20177;-69
2022/05/20 09:09:39;;;;;;;10.13;5.80;;;35.70;1.00;;;;;;5011940;28;20206;-72
2022/05/20 09:12:06;;;;;;;11.73;5.80;;;36.00;1.00;;;;;;5016713;28;20497;-71
2022/05/20 09:17:23;;;;;;;9.43;5.60;;;36.40;1.00;;;;;;5014240;28;20228;-71
2022/05/20 09:20:02;;;;;;;9.32;5.70;;;37.10;1.00;;;;;;5030536;28;20172;-71
2022/05/20 09:22:38;;;;;;;9.52;5.85;;;36.90;1.00;;;;;;5019881;28;20169;-71
2022/05/20 09:25:32;;;;;;;9.77;5.70;;;36.40;1.00;;;;;;5020809;28;20658;-71
2022/05/20 09:28:22;;;;;;;7.72;5.68;;;36.00;1.00;;;;;;5023311;28;20213;-71
2022/05/20 09:30:51;;;;;;;9.80;5.65;;;36.40;1.00;;;;;;5027239;28;20228;-71
2022/05/20 09:33:27;;;;;;;7.15;5.90;;;37.10;1.00;;;;;;5018670;28;20178;-71
2022/05/20 09:35:58;;;;;;;8.27;6.18;;;37.00;1.00;;;;;;5028738;28;20907;-71
2022/05/20 09:38:40;;;;;;;10.65;5.80;;;37.30;1.00;;;;;;5033165;28;20255;-70
2022/05/20 09:41:23;;;;;;;11.13;5.93;;;37.50;1.00;;;;;;5023180;28;20666;-71
2022/05/20 09:43:58;;;;;;;10.10;5.80;;;37.30;1.00;;;;;;5022429;28;20174;-69
2022/05/20 09:46:39;;;;;;;9.65;6.38;;;36.80;1.00;;;;;;5028110;28;20765;-71
2022/05/20 09:49:19;;;;;;;8.25;5.78;;;36.60;1.00;;;;;;5021620;28;20209;-71
2022/05/20 09:51:57;;;;;;;7.35;5.93;;;37.50;1.00;;;;;;5020721;28;20505;-71
2022/05/20 09:54:30;;;;;;;13.25;5.80;;;37.50;1.00;;;;;;5023330;28;20259;-71
2022/05/20 09:57:11;;;;;;;7.85;5.53;;;36.40;1.00;;;;;;5024137;28;20173;-71
2022/05/20 10:00:15;;;;;;;11.77;6.22;;;36.50;1.00;;;;;;5029590;28;20639;-71
2022/05/20 10:03:25;;;;;;;8.57;5.72;;;37.50;1.00;;;;;;5025014;28;20196;-71
2022/05/20 10:06:17;;;;;;;8.20;5.63;;;37.50;1.00;;;;;;5001664;28;20627;-71
2022/05/20 10:08:51;;;;;;;9.27;5.60;;;38.20;1.00;;;;;;5013805;28;20218;-72
2022/05/20 10:11:24;;;;;;;8.30;5.20;;;38.90;1.00;;;;;;5025938;28;20176;-71
2022/05/20 10:14:14;;;;;;;9.52;5.82;;;38.80;1.00;;;;;;5016804;28;20348;-72
2022/05/20 10:16:45;;;;;;;8.13;5.28;;;38.50;1.00;;;;;;5018385;28;20171;-71
2022/05/20 10:19:34;;;;;;;7.40;5.63;;;39.30;1.00;;;;;;5031041;28;20234;-72
2022/05/20 10:22:32;;;;;;;11.85;5.45;;;40.30;1.00;;;;;;5021558;28;20439;-70
2022/05/20 10:25:08;;;;;;;13.63;5.43;;;41.30;1.00;;;;;;5022569;28;20197;-72
2022/05/20 10:27:40;;;;;;;8.13;4.93;;;41.20;1.00;;;;;;5019715;28;20200;-72
2022/05/20 10:33:05;;;;;;;7.13;5.20;;;40.50;1.00;;;;;;5022478;28;21431;-71
2022/05/20 10:35:53;;;;;;;8.02;5.38;;;40.10;1.00;;;;;;5027866;28;20195;-71
2022/05/20 10:38:22;;;;;;;8.13;5.13;;;40.50;1.00;;;;;;5025184;28;20290;-71
2022/05/20 10:41:12;;;;;;;8.95;5.10;;;40.20;1.00;;;;;;5022836;28;20200;-71
2022/05/20 10:50:27;;;;;;;15.48;6.18;;;38.10;1.00;;;;;;5029502;28;20208;-71
2022/05/20 10:53:20;;;;;;;8.40;5.35;;;39.20;1.00;;;;;;5020147;28;20592;-71
2022/05/20 10:56:11;;;;;;;13.32;5.80;;;39.50;1.00;;;;;;5038119;28;20177;-71
2022/05/20 10:58:40;;;;;;;9.13;5.43;;;39.70;1.00;;;;;;5032193;28;20271;-70
2022/05/20 11:01:17;;;;;;;8.23;5.22;;;40.40;1.00;;;;;;5027352;28;20287;-71
2022/05/20 11:04:36;;;;;;;7.57;5.20;;;41.00;1.00;;;;;;5034072;28;20659;-70
2022/05/20 11:07:35;;;;;;;10.52;5.20;;;37.50;1.00;;;;;;5000863;28;20715;-71
2022/05/20 11:10:04;;;;;;;10.25;5.70;;;36.90;1.00;;;;;;5024619;28;20201;-71
2022/05/20 11:13:02;;;;;;;8.75;5.20;;;35.70;1.00;;;;;;5021933;28;20205;-71
2022/05/20 11:15:27;;;;;;;15.77;5.70;;;37.60;1.00;;;;;;5027261;28;20263;-71
2022/05/20 11:18:01;;;;;;;9.02;5.82;;;38.50;1.00;;;;;;5020795;28;20258;-69
2022/05/20 11:20:38;;;;;;;11.38;5.50;;;37.60;1.00;;;;;;5022916;28;20186;-71
2022/05/20 11:23:37;;;;;;;11.48;6.20;;;36.20;1.00;;;;;;5020469;28;20178;-70
2022/05/20 11:26:17;;;;;;;10.88;6.03;;;35.30;1.00;;;;;;5021349;28;20239;-70
2022/05/20 11:29:05;;;;;;;9.25;5.18;;;34.50;1.00;;;;;;5030521;28;20583;-70
2022/05/20 11:31:41;;;;;;;8.93;5.63;;;34.10;1.00;;;;;;5026334;28;20235;-70
2022/05/20 11:34:17;;;;;;;11.70;5.57;;;34.40;1.00;;;;;;5021385;28;20177;-71
2022/05/20 11:37:00;;;;;;;10.77;5.80;;;35.30;1.00;;;;;;5022359;28;20169;-71
2022/05/20 11:39:48;;;;;;;8.70;5.40;;;36.60;1.00;;;;;;5026669;28;20184;-71
2022/05/20 11:42:37;;;;;;;10.35;5.93;;;36.80;1.00;;;;;;5021375;28;20196;-70
2022/05/20 11:45:35;;;;;;;10.10;5.78;;;37.40;1.00;;;;;;5016518;28;20178;-70
2022/05/20 11:48:06;;;;;;;8.32;5.68;;;37.60;1.00;;;;;;5016062;28;20290;-70
2022/05/20 11:50:59;;;;;;;8.23;5.70;;;37.80;1.00;;;;;;5017281;28;20344;-71
2022/05/20 11:54:00;;;;;;;7.88;5.82;;;38.60;1.00;;;;;;5019996;28;20177;-70
2022/05/20 11:56:34;;;;;;;7.88;6.30;;;38.40;1.00;;;;;;5022182;28;20555;-73
2022/05/20 11:59:25;;;;;;;10.48;6.07;;;37.90;1.00;;;;;;5017188;28;20299;-71
2022/05/20 12:01:56;;;;;;;10.23;5.75;;;38.00;1.00;;;;;;5024746;28;20189;-70
2022/05/20 12:04:27;;;;;;;9.75;5.82;;;39.30;1.00;;;;;;5019475;28;20182;-69
2022/05/20 12:07:03;;;;;;;13.32;5.20;;;40.00;1.00;;;;;;5031617;28;20182;-68
2022/05/20 12:09:35;;;;;;;10.00;5.50;;;40.10;1.00;;;;;;5018777;28;20276;-70
2022/05/20 12:12:13;;;;;;;7.53;5.70;;;39.80;1.00;;;;;;5028821;28;20830;-70
2022/05/20 12:14:56;;;;;;;14.40;5.10;;;39.20;1.00;;;;;;5024150;28;20235;-71
2022/05/20 12:17:40;;;;;;;8.68;5.25;;;39.60;1.00;;;;;;5023929;28;20296;-72
2022/05/20 12:26:00;;;;;;;9.40;5.60;;;40.10;1.00;;;;;;5030518;28;20189;-72
2022/05/20 12:28:25;;;;;;;11.30;5.60;;;40.10;1.00;;;;;;5032194;28;20227;-71
2022/05/20 12:31:15;;;;;;;9.38;5.10;;;40.50;1.00;;;;;;5027290;28;20173;-70
2022/05/20 12:33:53;;;;;;;9.68;5.80;;;40.30;1.00;;;;;;5024478;28;20653;-69
2022/05/20 12:36:28;;;;;;;13.20;5.85;;;40.00;1.00;;;;;;5025151;28;20255;-71
2022/05/20 12:39:09;;;;;;;10.13;5.50;;;39.40;1.00;;;;;;5025463;28;20292;-71
2022/05/20 12:41:50;;;;;;;12.77;6.03;;;40.10;1.00;;;;;;5029183;28;20255;-70
2022/05/20 12:44:15;;;;;;;8.63;5.70;;;41.00;1.00;;;;;;5027037;28;20249;-69
2022/05/20 12:47:12;;;;;;;6.90;5.10;;;42.10;1.00;;;;;;5022508;28;20201;-69
2022/05/20 12:49:39;;;;;;;9.90;5.70;;;42.60;1.00;;;;;;5035438;28;20566;-71
2022/05/20 12:52:13;;;;;;;10.27;5.50;;;41.80;1.00;;;;;;5025227;28;20188;-71
2022/05/20 12:54:52;;;;;;;8.23;5.25;;;41.50;1.00;;;;;;5027305;28;20165;-71
2022/05/20 12:57:46;;;;;;;11.32;5.13;;;42.00;1.00;;;;;;5024262;28;20185;-71
2022/05/20 13:00:14;;;;;;;14.68;5.70;;;42.20;1.00;;;;;;5027515;28;20181;-72
2022/05/20 13:02:43;;;;;;;15.07;5.53;;;42.10;1.00;;;;;;5026735;28;20667;-72
2022/05/20 13:05:24;;;;;;;11.15;4.82;;;41.60;1.00;;;;;;5035806;28;20267;-72
2022/05/20 13:07:51;;;;;;;8.98;5.45;;;40.80;1.00;;;;;;5042752;28;20196;-72
2022/05/20 13:10:30;;;;;;;12.07;5.40;;;39.40;1.00;;;;;;5025682;28;20702;-71
2022/05/20 13:13:00;;;;;;;8.38;4.80;;;38.00;1.00;;;;;;5029312;28;20254;-71
2022/05/20 13:15:27;;;;;;;10.32;5.70;;;37.10;1.00;;;;;;5026938;28;20276;-72
2022/05/20 13:18:00;;;;;;;10.50;5.40;;;36.00;1.00;;;;;;5026761;28;20572;-71
2022/05/20 13:20:27;;;;;;;8.77;5.22;;;34.70;1.00;;;;;;5030932;28;20651;-71
2022/05/20 13:23:02;;;;;;;12.68;6.10;;;34.00;1.00;;;;;;5024350;28;20189;-70
2022/05/20 13:25:28;;;;;;;8.25;5.50;;;33.60;1.00;;;;;;5021999;28;20213;-71
2022/05/20 13:27:53;;;;;;;7.03;5.22;;;33.10;1.00;;;;;;5041071;28;20203;-71
2022/05/20 13:30:24;;;;;;;9.13;5.50;;;32.80;1.00;;;;;;5030942;28;20527;-70
2022/05/20 13:32:50;;;;;;;9.82;5.53;;;32.00;1.00;;;;;;5026590;28;20208;-71
2022/05/20 13:35:16;;;;;;;15.60;5.90;;;31.50;1.00;;;;;;5034002;28;20201;-71
2022/05/20 13:37:50;;;;;;;10.70;5.70;;;30.50;1.00;;;;;;5026899;28;20709;-71
2022/05/20 13:40:32;;;;;;;10.80;5.35;;;30.10;1.00;;;;;;5018745;28;20808;-70
2022/05/20 13:42:58;;;;;;;10.02;5.78;;;30.20;1.00;;;;;;5024401;28;20177;-71
2022/05/20 13:51:11;;;;;;;14.57;6.38;;;30.90;1.00;;;;;;5015903;28;20272;-71